Time;durP1;ratioP1;P1;durP2;ratioP2;P2;SDS_P1;SDS_P2;PMS_P1;PMS_P2;Temp;Humidity;BMP_temperature;BMP_pressure;BME280_temperature;BME280_humidity;BME280_pressure;Samples;Min_cycle;Max_cycle;Signal;HPM_P1;HPM_P2
2021/08/31 00:00:23;;;;;;;33.45;13.98;;;;;;;15.22;100.00;102322.13;5281708;28;20103;-68
2021/08/31 00:02:54;;;;;;;32.15;16.02;;;;;;;15.24;100.00;102324.66;5282225;28;20055;-68
2021/08/31 00:05:24;;;;;;;35.10;15.77;;;;;;;15.20;100.00;102331.38;5260190;28;20028;-68
2021/08/31 00:07:55;;;;;;;31.20;15.15;;;;;;;15.17;100.00;102335.25;5261510;28;20099;-68
2021/08/31 00:10:25;;;;;;;34.00;15.20;;;;;;;15.16;100.00;102330.88;5266518;28;20072;-68
2021/08/31 00:12:56;;;;;;;36.90;16.45;;;;;;;15.17;100.00;102326.31;5282335;28;20103;-68
2021/08/31 00:15:26;;;;;;;34.92;16.52;;;;;;;15.10;100.00;102328.78;5281448;28;20027;-68
2021/08/31 00:18:00;;;;;;;39.45;16.65;;;;;;;15.10;100.00;102334.19;5282512;28;20020;-68
2021/08/31 00:20:31;;;;;;;42.67;16.70;;;;;;;15.07;100.00;102334.53;5281608;28;20455;-68
2021/08/31 00:23:01;;;;;;;37.92;16.88;;;;;;;15.10;100.00;102336.06;5282035;28;20028;-68
2021/08/31 00:25:32;;;;;;;31.73;16.02;;;;;;;15.06;100.00;102340.94;5281787;28;20024;-68
2021/08/31 00:28:02;;;;;;;37.17;17.08;;;;;;;15.04;100.00;102342.94;5267967;28;20051;-68
2021/08/31 00:30:33;;;;;;;38.33;16.65;;;;;;;14.96;100.00;102349.16;5281334;28;20020;-68
2021/08/31 00:33:03;;;;;;;40.00;17.58;;;;;;;15.00;100.00;102345.09;5262737;28;20455;-68
2021/08/31 00:35:34;;;;;;;40.50;15.50;;;;;;;14.97;100.00;102342.75;5259660;28;20035;-68
2021/08/31 00:38:04;;;;;;;38.92;16.80;;;;;;;14.98;100.00;102338.19;5260575;28;20504;-68
2021/08/31 00:40:35;;;;;;;39.80;16.63;;;;;;;14.96;100.00;102342.88;5256497;28;20107;-68
2021/08/31 00:43:06;;;;;;;41.30;16.95;;;;;;;14.94;100.00;102344.91;5248441;28;20026;-67
2021/08/31 00:45:36;;;;;;;37.70;17.42;;;;;;;14.92;100.00;102345.06;5260456;28;20023;-68
2021/08/31 00:48:07;;;;;;;45.45;17.50;;;;;;;14.88;100.00;102342.84;5260884;28;20060;-68
2021/08/31 00:50:38;;;;;;;34.70;16.30;;;;;;;14.83;100.00;102345.16;5277277;28;20034;-68
2021/08/31 00:53:10;;;;;;;47.85;17.40;;;;;;;14.76;100.00;102343.09;5280945;28;20034;-68
2021/08/31 00:55:42;;;;;;;39.50;17.65;;;;;;;14.81;100.00;102349.88;5280967;28;20035;-68
2021/08/31 00:58:13;;;;;;;42.03;18.00;;;;;;;14.77;100.00;102352.91;5280133;28;20030;-68
2021/08/31 01:00:43;;;;;;;36.00;18.20;;;;;;;14.88;100.00;102343.69;5267278;28;20094;-68
2021/08/31 01:03:14;;;;;;;41.15;18.33;;;;;;;14.86;100.00;102353.81;5276362;28;20026;-68
2021/08/31 01:05:44;;;;;;;41.20;17.27;;;;;;;14.91;100.00;102353.31;5260524;28;20107;-68
2021/08/31 01:08:20;;;;;;;39.55;17.98;;;;;;;14.89;100.00;102356.19;5260465;28;20181;-68
2021/08/31 01:10:52;;;;;;;37.42;18.25;;;;;;;14.92;100.00;102355.88;5270349;28;20508;-68
2021/08/31 01:13:23;;;;;;;40.50;20.40;;;;;;;14.96;100.00;102345.59;5281285;28;20023;-68
2021/08/31 01:15:54;;;;;;;39.53;19.70;;;;;;;14.95;100.00;102343.91;5280430;28;20608;-69
2021/08/31 01:18:26;;;;;;;47.65;20.05;;;;;;;14.94;100.00;102350.31;5279866;28;20031;-68
2021/08/31 01:20:59;;;;;;;42.20;19.98;;;;;;;14.98;100.00;102351.69;5266869;28;20027;-68
2021/08/31 01:23:30;;;;;;;45.00;20.60;;;;;;;14.98;100.00;102355.25;5260490;28;20024;-69
2021/08/31 01:26:01;;;;;;;45.40;21.73;;;;;;;14.96;100.00;102346.47;5259610;28;20146;-68
2021/08/31 01:28:33;;;;;;;47.22;22.92;;;;;;;14.94;100.00;102356.56;5268901;28;20110;-68
2021/08/31 01:31:04;;;;;;;45.10;22.20;;;;;;;14.94;100.00;102363.81;5279800;28;20020;-68
2021/08/31 01:33:35;;;;;;;48.13;23.38;;;;;;;14.94;100.00;102356.56;5280852;28;20407;-68
2021/08/31 01:36:17;;;;;;;57.85;25.20;;;;;;;14.99;100.00;102358.78;5280668;28;20020;-69
2021/08/31 01:38:50;;;;;;;45.92;23.20;;;;;;;15.00;100.00;102363.19;5280293;28;20036;-69
2021/08/31 01:41:22;;;;;;;49.33;24.02;;;;;;;14.97;100.00;102360.81;5264004;28;20016;-69
2021/08/31 01:43:53;;;;;;;55.90;26.38;;;;;;;14.98;100.00;102362.50;5254275;28;20024;-69
2021/08/31 01:46:24;;;;;;;51.25;24.20;;;;;;;14.95;100.00;102357.41;5259674;28;20463;-69
2021/08/31 01:48:54;;;;;;;50.75;24.85;;;;;;;14.96;100.00;102365.38;5259607;28;20028;-69
2021/08/31 01:51:25;;;;;;;51.13;24.63;;;;;;;15.01;100.00;102359.50;5258452;28;20522;-68
2021/08/31 01:54:07;;;;;;;47.17;24.00;;;;;;;14.97;100.00;102358.97;5259906;28;20081;-68
2021/08/31 01:56:40;;;;;;;52.33;25.65;;;;;;;14.91;100.00;102358.72;5259504;28;20035;-68
2021/08/31 01:59:11;;;;;;;58.00;25.60;;;;;;;15.01;100.00;102368.44;5280563;28;20035;-69
2021/08/31 02:01:42;;;;;;;56.30;25.65;;;;;;;14.99;100.00;102353.38;5277563;28;20023;-68
2021/08/31 02:04:12;;;;;;;49.75;24.77;;;;;;;15.03;100.00;102357.47;5258624;28;20040;-68
2021/08/31 02:06:43;;;;;;;49.60;25.15;;;;;;;15.06;100.00;102364.41;5259389;28;20020;-69
2021/08/31 02:09:14;;;;;;;44.80;23.42;;;;;;;15.06;100.00;102365.28;5259381;28;20207;-68
2021/08/31 02:11:45;;;;;;;45.60;24.02;;;;;;;15.04;100.00;102364.56;5277157;28;20031;-68
2021/08/31 02:14:15;;;;;;;51.92;24.65;;;;;;;15.01;100.00;102364.91;5279884;28;20480;-69
2021/08/31 02:16:46;;;;;;;50.67;24.67;;;;;;;15.00;100.00;102374.84;5280375;28;20024;-69
2021/08/31 02:19:17;;;;;;;51.92;24.10;;;;;;;15.00;100.00;102371.28;5279992;28;20472;-69
2021/08/31 02:21:47;;;;;;;48.92;25.52;;;;;;;14.97;100.00;102371.63;5273144;28;20078;-68
2021/08/31 02:24:18;;;;;;;49.70;24.38;;;;;;;14.94;100.00;102374.63;5272090;28;20019;-69
2021/08/31 02:26:49;;;;;;;51.42;25.02;;;;;;;14.93;100.00;102371.09;5276493;28;20090;-69
2021/08/31 02:29:19;;;;;;;50.72;25.50;;;;;;;14.97;100.00;102369.78;5279079;28;20042;-68
2021/08/31 02:31:50;;;;;;;54.95;24.25;;;;;;;15.03;100.00;102363.72;5279987;28;20027;-69
2021/08/31 02:34:21;;;;;;;51.03;24.27;;;;;;;15.00;100.00;102374.00;5280363;28;20811;-68
2021/08/31 02:36:51;;;;;;;51.30;24.10;;;;;;;15.05;100.00;102365.41;5280237;28;20487;-69
2021/08/31 02:39:22;;;;;;;46.25;23.08;;;;;;;15.01;100.00;102373.84;5278945;28;20103;-68
2021/08/31 02:41:52;;;;;;;43.08;23.45;;;;;;;15.12;100.00;102367.34;5255235;28;20040;-68
2021/08/31 02:44:23;;;;;;;51.65;25.73;;;;;;;15.12;100.00;102372.75;5263597;28;20031;-68
2021/08/31 02:46:53;;;;;;;50.35;24.25;;;;;;;15.07;100.00;102371.53;5280273;28;20054;-68
2021/08/31 02:49:24;;;;;;;50.33;25.30;;;;;;;14.99;100.00;102366.91;5258246;28;20081;-69
2021/08/31 02:51:54;;;;;;;46.42;24.67;;;;;;;14.95;100.00;102370.91;5258924;28;20092;-68
2021/08/31 02:54:25;;;;;;;47.60;24.42;;;;;;;14.98;100.00;102368.75;5259555;28;20019;-68
2021/08/31 02:56:55;;;;;;;54.08;25.15;;;;;;;15.00;100.00;102365.88;5258814;28;20021;-68
2021/08/31 02:59:26;;;;;;;44.53;24.25;;;;;;;15.00;100.00;102379.41;5258814;28;20537;-69
2021/08/31 03:02:07;;;;;;;50.17;23.58;;;;;;;14.98;100.00;102376.88;5258423;28;20028;-69
2021/08/31 03:04:39;;;;;;;48.42;23.50;;;;;;;15.08;100.00;102379.47;5260842;28;20058;-68
2021/08/31 03:07:13;;;;;;;48.80;24.15;;;;;;;15.00;100.00;102379.41;5262431;28;20077;-68
2021/08/31 03:09:44;;;;;;;43.47;22.98;;;;;;;15.08;100.00;102378.63;5262673;28;20521;-68
2021/08/31 03:12:14;;;;;;;44.33;23.70;;;;;;;14.98;100.00;102382.25;5283599;28;20020;-68
2021/08/31 03:14:45;;;;;;;54.15;24.73;;;;;;;15.00;100.00;102374.84;5282963;28;20032;-69
2021/08/31 03:17:15;;;;;;;43.45;24.17;;;;;;;15.00;100.00;102374.84;5283458;28;20072;-68
2021/08/31 03:19:46;;;;;;;50.28;25.30;;;;;;;15.00;100.00;102387.50;5283048;28;20483;-68
2021/08/31 03:22:16;;;;;;;45.75;23.25;;;;;;;15.07;100.00;102383.19;5283521;28;20032;-68
2021/08/31 03:24:47;;;;;;;47.05;24.65;;;;;;;15.09;100.00;102385.72;5283293;28;20023;-68
2021/08/31 03:27:17;;;;;;;44.22;23.25;;;;;;;15.12;100.00;102386.25;5282896;28;20023;-68
2021/08/31 03:29:48;;;;;;;46.40;22.67;;;;;;;15.09;100.00;102389.25;5263213;28;20423;-68
2021/08/31 03:32:18;;;;;;;48.03;22.45;;;;;;;15.02;100.00;102390.91;5261990;28;20063;-68
2021/08/31 03:34:49;;;;;;;53.30;24.48;;;;;;;15.08;100.00;102397.53;5262338;28;20031;-68
2021/08/31 03:37:19;;;;;;;51.47;23.02;;;;;;;14.99;100.00;102389.38;5261902;28;20466;-68
2021/08/31 03:39:50;;;;;;;48.78;24.42;;;;;;;15.07;100.00;102399.41;5261149;28;20467;-68
2021/08/31 03:42:20;;;;;;;49.28;23.83;;;;;;;15.10;100.00;102400.91;5261665;28;20036;-68
2021/08/31 03:44:51;;;;;;;41.17;22.63;;;;;;;15.04;100.00;102399.69;5262364;28;20036;-68
2021/08/31 03:47:21;;;;;;;42.53;22.52;;;;;;;15.01;100.00;102406.28;5261816;28;20529;-68
2021/08/31 03:49:52;;;;;;;43.55;22.63;;;;;;;15.11;100.00;102398.09;5261328;28;20028;-68
2021/08/31 03:52:22;;;;;;;47.15;22.80;;;;;;;15.07;100.00;102404.81;5261768;28;20028;-68
2021/08/31 03:54:52;;;;;;;50.92;25.80;;;;;;;15.04;100.00;102407.81;5262063;28;20016;-68
2021/08/31 03:57:23;;;;;;;48.08;24.77;;;;;;;15.02;100.00;102409.84;5261366;28;20516;-68
2021/08/31 03:59:53;;;;;;;46.13;24.52;;;;;;;15.02;100.00;102415.25;5260936;28;20071;-68
2021/08/31 04:02:24;;;;;;;46.67;25.58;;;;;;;14.96;100.00;102415.84;5261123;28;20047;-69
2021/08/31 04:04:54;;;;;;;43.78;23.25;;;;;;;15.11;100.00;102410.72;5259860;28;20103;-68
2021/08/31 04:07:25;;;;;;;53.00;24.95;;;;;;;15.03;100.00;102411.53;5261365;28;20019;-69
2021/08/31 04:09:55;;;;;;;47.58;24.33;;;;;;;14.99;100.00;102407.44;5263212;28;20058;-68
2021/08/31 04:12:26;;;;;;;49.00;24.35;;;;;;;15.05;100.00;102401.38;5282501;28;20027;-68
2021/08/31 04:14:56;;;;;;;50.50;25.15;;;;;;;14.97;100.00;102407.59;5281476;28;20020;-69
2021/08/31 04:17:27;;;;;;;43.95;23.08;;;;;;;15.03;100.00;102404.25;5282105;28;20051;-68
2021/08/31 04:19:57;;;;;;;48.83;23.35;;;;;;;15.13;100.00;102409.56;5276917;28;20028;-68
2021/08/31 04:22:28;;;;;;;43.65;22.73;;;;;;;15.10;100.00;102409.88;5261233;28;20476;-68
2021/08/31 04:24:59;;;;;;;52.47;23.95;;;;;;;15.08;100.00;102411.91;5261287;28;20024;-68
2021/08/31 04:27:29;;;;;;;48.90;24.60;;;;;;;15.00;100.00;102415.38;5260794;28;20020;-69
2021/08/31 04:30:01;;;;;;;46.85;24.42;;;;;;;15.03;100.00;102422.34;5260147;28;20453;-68
2021/08/31 04:32:32;;;;;;;49.20;25.58;;;;;;;15.02;100.00;102428.75;5260559;28;20031;-69
2021/08/31 04:35:03;;;;;;;42.97;23.55;;;;;;;15.05;100.00;102428.41;5261170;28;20020;-68
2021/08/31 04:37:33;;;;;;;47.88;24.65;;;;;;;15.01;100.00;102440.56;5260653;28;20024;-68
2021/08/31 04:40:05;;;;;;;52.75;25.35;;;;;;;15.07;100.00;102439.94;5259931;28;20040;-68
2021/08/31 04:42:35;;;;;;;42.47;22.23;;;;;;;15.08;100.00;102443.50;5265315;28;20027;-68
2021/08/31 04:45:06;;;;;;;41.80;23.83;;;;;;;15.10;100.00;102444.16;5281746;28;20733;-68
2021/08/31 04:47:37;;;;;;;48.17;23.67;;;;;;;15.01;100.00;102437.88;5281848;28;20031;-69
2021/08/31 04:50:08;;;;;;;48.42;23.50;;;;;;;15.06;100.00;102443.66;5281296;28;20114;-68
2021/08/31 04:52:38;;;;;;;46.38;23.77;;;;;;;15.02;100.00;102448.53;5281018;28;20519;-69
2021/08/31 04:55:10;;;;;;;46.83;23.15;;;;;;;15.05;100.00;102447.34;5266682;28;20024;-69
2021/08/31 04:57:40;;;;;;;48.40;24.10;;;;;;;15.12;100.00;102451.13;5260489;28;20035;-69
2021/08/31 05:00:11;;;;;;;47.92;21.67;;;;;;;15.15;100.00;102455.34;5275897;28;20727;-68
2021/08/31 05:02:42;;;;;;;37.40;21.38;;;;;;;15.25;100.00;102451.53;5281319;28;20064;-68
2021/08/31 05:05:13;;;;;;;41.83;21.10;;;;;;;15.26;100.00;102446.97;5260990;28;20839;-68
2021/08/31 05:07:44;;;;;;;40.38;21.15;;;;;;;15.24;100.00;102446.31;5260529;28;20077;-68
2021/08/31 05:10:14;;;;;;;41.58;21.23;;;;;;;15.25;100.00;102448.84;5264536;28;20486;-68
2021/08/31 05:12:45;;;;;;;38.50;21.00;;;;;;;15.23;100.00;102458.13;5281299;28;20109;-68
2021/08/31 05:15:15;;;;;;;44.40;22.65;;;;;;;15.16;100.00;102452.53;5274602;28;20031;-68
2021/08/31 05:17:46;;;;;;;45.45;23.02;;;;;;;15.20;100.00;102459.28;5259816;28;20020;-68
2021/08/31 05:20:18;;;;;;;53.20;22.88;;;;;;;15.26;100.00;102455.09;5259785;28;20031;-69
2021/08/31 05:22:51;;;;;;;41.55;21.83;;;;;;;15.22;100.00;102462.69;5259911;28;20024;-68
2021/08/31 05:25:21;;;;;;;45.22;22.75;;;;;;;15.14;100.00;102462.63;5260199;28;20121;-68
2021/08/31 05:27:51;;;;;;;43.25;22.35;;;;;;;15.17;100.00;102470.44;5261904;28;20015;-68
2021/08/31 05:30:22;;;;;;;43.83;21.45;;;;;;;15.20;100.00;102472.81;5269597;28;20480;-69
2021/08/31 05:32:52;;;;;;;38.97;22.05;;;;;;;15.27;100.00;102468.47;5259345;28;20537;-68
2021/08/31 05:35:23;;;;;;;40.25;20.98;;;;;;;15.27;100.00;102468.47;5259989;28;20547;-69
2021/08/31 05:37:53;;;;;;;39.88;21.73;;;;;;;15.34;100.00;102471.38;5259872;28;20028;-68
2021/08/31 05:40:24;;;;;;;34.97;19.80;;;;;;;15.27;100.00;102479.28;5258893;28;20107;-69
2021/08/31 05:42:54;;;;;;;38.35;21.25;;;;;;;15.33;100.00;102482.38;5246671;28;20028;-68
2021/08/31 05:45:25;;;;;;;38.03;20.83;;;;;;;15.38;100.00;102485.44;5259569;28;20024;-68
2021/08/31 05:47:55;;;;;;;35.65;19.77;;;;;;;15.40;100.00;102484.28;5259942;28;20119;-69
2021/08/31 05:50:26;;;;;;;37.85;20.67;;;;;;;15.40;100.00;102488.84;5258916;28;20035;-68
2021/08/31 05:52:56;;;;;;;36.65;20.13;;;;;;;15.38;100.00;102491.69;5259281;28;20057;-68
2021/08/31 05:55:27;;;;;;;41.00;20.33;;;;;;;15.42;100.00;102486.84;5259534;28;20024;-68
2021/08/31 05:57:57;;;;;;;32.95;19.88;;;;;;;15.40;100.00;102496.94;5259812;28;20453;-68
2021/08/31 06:00:28;;;;;;;36.60;19.98;;;;;;;15.44;100.00;102492.94;5264376;28;20097;-68
2021/08/31 06:02:59;;;;;;;37.15;20.48;;;;;;;15.48;100.00;102494.31;5280262;28;20453;-68
2021/08/31 06:05:29;;;;;;;35.55;18.70;;;;;;;15.51;100.00;102492.16;5258751;28;20056;-68
2021/08/31 06:07:59;;;;;;;35.17;18.15;;;;;;;15.65;100.00;102500.69;5259106;28;20567;-69
2021/08/31 06:10:30;;;;;;;34.25;19.60;;;;;;;15.64;100.00;102499.84;5258534;28;20036;-69
2021/08/31 06:13:00;;;;;;;38.65;18.80;;;;;;;15.67;100.00;102504.97;5274769;28;20047;-68
2021/08/31 06:15:31;;;;;;;36.50;18.88;;;;;;;15.67;100.00;102499.53;5280107;28;20062;-69
2021/08/31 06:18:01;;;;;;;37.63;19.00;;;;;;;15.67;100.00;102504.13;5278759;28;20065;-68
2021/08/31 06:20:32;;;;;;;27.50;17.98;;;;;;;15.76;100.00;102509.41;5279869;28;20107;-69
2021/08/31 06:23:03;;;;;;;31.20;17.42;;;;;;;15.79;100.00;102506.38;5280274;28;20364;-69
2021/08/31 06:25:33;;;;;;;35.80;19.60;;;;;;;15.85;100.00;102514.84;5280534;28;20718;-69
2021/08/31 06:28:04;;;;;;;30.67;18.30;;;;;;;15.86;100.00;102519.25;5274986;28;20035;-69
2021/08/31 06:30:35;;;;;;;34.63;18.00;;;;;;;15.92;100.00;102521.34;5258282;28;20508;-68
2021/08/31 06:33:05;;;;;;;34.92;19.13;;;;;;;15.97;100.00;102519.84;5259212;28;20027;-69
2021/08/31 06:35:36;;;;;;;36.53;19.85;;;;;;;15.99;100.00;102523.22;5259065;28;20073;-68
2021/08/31 06:38:06;;;;;;;38.22;20.33;;;;;;;16.04;100.00;102522.75;5258708;28;20028;-69
2021/08/31 06:40:37;;;;;;;36.63;18.80;;;;;;;16.01;100.00;102521.22;5260444;28;20028;-69
2021/08/31 06:43:07;;;;;;;37.60;20.33;;;;;;;16.01;100.00;102525.75;5250898;28;20750;-68
2021/08/31 06:45:38;;;;;;;42.67;21.92;;;;;;;16.03;100.00;102531.88;5262711;28;20028;-69
2021/08/31 06:48:08;;;;;;;40.92;21.85;;;;;;;16.04;100.00;102526.28;5263109;28;20104;-68
2021/08/31 06:50:39;;;;;;;42.25;21.58;;;;;;;16.09;100.00;102539.34;5280470;28;20024;-68
2021/08/31 06:53:09;;;;;;;36.35;21.10;;;;;;;16.16;100.00;102539.53;5283880;28;20034;-68
2021/08/31 06:55:41;;;;;;;33.60;20.38;;;;;;;16.18;100.00;102538.38;5283418;28;20027;-69
2021/08/31 06:58:12;;;;;;;41.15;21.90;;;;;;;16.14;100.00;102547.00;5284017;28;20023;-69
2021/08/31 07:00:43;;;;;;;35.90;21.33;;;;;;;16.21;100.00;102545.31;5283149;28;20081;-69
2021/08/31 07:03:13;;;;;;;32.50;20.27;;;;;;;16.15;100.00;102544.13;5280603;28;20395;-69
2021/08/31 07:05:44;;;;;;;37.38;21.65;;;;;;;16.22;100.00;102547.88;5249191;28;20063;-69
2021/08/31 07:08:15;;;;;;;40.13;21.25;;;;;;;16.23;100.00;102554.16;5245860;28;20691;-69
2021/08/31 07:10:45;;;;;;;36.83;21.98;;;;;;;16.15;100.00;102554.09;5269599;28;20069;-68
2021/08/31 07:13:16;;;;;;;39.58;21.33;;;;;;;16.34;100.00;102547.59;5281720;27;20039;-69
2021/08/31 07:15:46;;;;;;;38.10;20.50;;;;;;;16.42;100.00;102550.34;5271377;28;20584;-69
2021/08/31 07:18:19;;;;;;;35.05;19.98;;;;;;;16.45;100.00;102540.00;5260424;28;20032;-68
2021/08/31 07:20:50;;;;;;;35.92;20.58;;;;;;;16.51;100.00;102552.03;5260137;28;20403;-68
2021/08/31 07:23:20;;;;;;;49.80;19.45;;;;;;;16.56;100.00;102552.41;5259219;28;20032;-68
2021/08/31 07:25:51;;;;;;;39.40;20.17;;;;;;;16.63;100.00;102542.63;5260566;28;20024;-69
2021/08/31 07:28:21;;;;;;;37.97;20.38;;;;;;;16.66;100.00;102553.09;5260810;28;20503;-69
2021/08/31 07:30:52;;;;;;;42.35;20.48;;;;;;;16.61;100.00;102544.63;5259360;28;20028;-69
2021/08/31 07:33:22;;;;;;;35.50;19.70;;;;;;;16.64;100.00;102547.03;5260027;28;20016;-69
2021/08/31 07:35:53;;;;;;;36.72;20.10;;;;;;;16.58;100.00;102551.25;5260223;28;20434;-69
2021/08/31 07:38:23;;;;;;;38.40;20.45;;;;;;;16.62;100.00;102554.47;5260432;28;20535;-69
2021/08/31 07:40:54;;;;;;;29.35;18.27;;;;;;;16.58;100.00;102558.53;5255582;28;20025;-68
2021/08/31 07:43:25;;;;;;;35.00;17.98;;;;;;;16.61;100.00;102557.31;5249728;28;20015;-69
2021/08/31 07:45:56;;;;;;;33.42;19.25;;;;;;;16.59;100.00;102560.22;5260011;28;20024;-69
2021/08/31 07:48:26;;;;;;;30.67;17.58;;;;;;;16.58;100.00;102564.78;5260214;28;20387;-69
2021/08/31 07:50:57;;;;;;;34.83;17.45;;;;;;;16.70;100.00;102567.19;5259154;28;20035;-69
2021/08/31 07:53:27;;;;;;;29.83;16.92;;;;;;;16.82;100.00;102569.47;5259552;28;20468;-69
2021/08/31 07:55:58;;;;;;;27.45;16.83;;;;;;;16.91;100.00;102569.47;5259112;28;20020;-69
2021/08/31 07:58:29;;;;;;;31.95;17.83;;;;;;;16.98;100.00;102571.38;5276144;28;20027;-69
2021/08/31 08:01:00;;;;;;;32.25;16.60;;;;;;;17.00;100.00;102571.19;5280710;28;20020;-69
2021/08/31 08:03:31;;;;;;;33.30;17.17;;;;;;;16.98;100.00;102573.22;5275830;28;20024;-69
2021/08/31 08:06:02;;;;;;;30.52;17.17;;;;;;;17.00;100.00;102577.44;5259871;28;20098;-69
2021/08/31 08:08:33;;;;;;;27.65;16.33;;;;;;;17.04;100.00;102581.53;5259434;28;20046;-69
2021/08/31 08:11:03;;;;;;;31.67;17.15;;;;;;;17.01;100.00;102579.16;5259108;28;20391;-69
2021/08/31 08:13:34;;;;;;;30.80;15.57;;;;;;;17.07;100.00;102580.38;5279462;28;20812;-69
2021/08/31 08:16:04;;;;;;;32.08;16.90;;;;;;;17.06;100.00;102586.78;5279306;28;20477;-69
2021/08/31 08:18:35;;;;;;;28.38;16.52;;;;;;;17.04;100.00;102583.41;5280437;28;20032;-69
2021/08/31 08:21:06;;;;;;;32.25;17.10;;;;;;;17.07;100.00;102583.94;5264026;28;20031;-68
2021/08/31 08:23:36;;;;;;;36.47;15.57;;;;;;;17.16;100.00;102583.91;5258915;28;20437;-69
2021/08/31 08:26:08;;;;;;;33.70;17.38;;;;;;;17.29;100.00;102581.56;5259147;28;20077;-69
2021/08/31 08:28:39;;;;;;;28.70;16.55;;;;;;;17.39;100.00;102581.41;5269684;28;20031;-69
2021/08/31 08:31:10;;;;;;;32.67;16.55;;;;;;;17.52;100.00;102588.03;5279029;28;20028;-69
2021/08/31 08:33:40;;;;;;;27.48;15.10;;;;;;;17.61;100.00;102586.97;5280027;28;20114;-69
2021/08/31 08:36:11;;;;;;;29.35;16.27;;;;;;;17.62;100.00;102582.44;5259728;28;20028;-69
2021/08/31 08:38:41;;;;;;;31.63;15.77;;;;;;;17.70;100.00;102582.41;5259244;28;20086;-69
2021/08/31 08:41:12;;;;;;;31.15;16.38;;;;;;;17.88;100.00;102592.28;5257934;28;20032;-68
2021/08/31 08:43:43;;;;;;;29.70;15.20;;;;;;;18.08;100.00;102580.84;5258278;28;20052;-68
2021/08/31 08:46:14;;;;;;;29.55;15.77;;;;;;;18.22;100.00;102584.69;5259165;28;20012;-69
2021/08/31 08:48:45;;;;;;;28.33;15.27;;;;;;;18.29;100.00;102583.00;5259013;28;20039;-69
2021/08/31 08:51:16;;;;;;;30.80;13.77;;;;;;;18.25;100.00;102586.22;5258442;28;20046;-70
2021/08/31 08:53:47;;;;;;;28.65;15.85;;;;;;;18.20;100.00;102585.91;5258128;28;20108;-69
2021/08/31 08:56:18;;;;;;;36.08;19.92;;;;;;;18.18;100.00;102586.09;5257956;28;20047;-70
2021/08/31 08:58:48;;;;;;;34.85;19.60;;;;;;;18.10;100.00;102592.38;5258733;28;20028;-70
2021/08/31 09:01:19;;;;;;;30.30;18.13;;;;;;;18.22;100.00;102595.56;5269035;28;20031;-69
2021/08/31 09:03:53;;;;;;;34.35;16.92;;;;;;;18.31;100.00;102599.09;5272043;28;20027;-69
2021/08/31 09:06:25;;;;;;;23.60;11.77;;;;;;;18.32;100.00;102604.38;5258555;28;20023;-70
2021/08/31 09:08:59;;;;;;;20.23;10.73;;;;;;;18.60;100.00;102599.31;5257917;28;20025;-70
2021/08/31 09:11:34;;;;;;;20.30;11.50;;;;;;;18.73;100.00;102606.13;5273442;28;20444;-69
2021/08/31 09:14:22;;;;;;;23.40;10.73;;;;;;;18.80;100.00;102601.66;5279334;28;20030;-70
2021/08/31 09:17:00;;;;;;;21.65;12.23;;;;;;;18.84;100.00;102603.84;5279182;28;20482;-70
2021/08/31 09:19:34;;;;;;;20.00;11.00;;;;;;;18.84;100.00;102606.56;5278744;28;20051;-70
2021/08/31 09:22:21;;;;;;;19.85;12.35;;;;;;;18.97;100.00;102607.84;5279093;28;20391;-70
2021/08/31 09:24:59;;;;;;;26.83;12.25;;;;;;;19.05;100.00;102611.34;5279216;27;20039;-69
2021/08/31 09:27:33;;;;;;;19.23;11.98;;;;;;;19.10;100.00;102608.09;5278301;28;20023;-71
2021/08/31 09:30:20;;;;;;;23.60;12.70;;;;;;;19.33;100.00;102611.69;5258379;28;20496;-69
2021/08/31 09:33:01;;;;;;;24.40;12.55;;;;;;;19.51;100.00;102608.63;5258075;28;20034;-70
2021/08/31 09:35:31;;;;;;;28.48;12.05;;;;;;;19.57;100.00;102609.78;5259691;28;20032;-70
2021/08/31 09:38:05;;;;;;;19.75;11.15;;;;;;;19.65;100.00;102612.47;5278274;28;20080;-70
2021/08/31 09:40:39;;;;;;;20.17;11.20;;;;;;;19.90;100.00;102610.38;5263150;28;20028;-69
2021/08/31 09:43:16;;;;;;;20.98;11.15;;;;;;;20.04;100.00;102614.16;5257668;28;20028;-69
2021/08/31 09:45:50;;;;;;;20.98;11.38;;;;;;;19.87;100.00;102605.28;5256870;28;20814;-69
2021/08/31 09:48:21;;;;;;;24.67;10.63;;;;;;;20.01;100.00;102612.63;5257294;28;20511;-69
2021/08/31 09:50:56;;;;;;;21.55;10.88;;;;;;;19.96;100.00;102608.78;5257253;28;20028;-69
2021/08/31 09:53:29;;;;;;;15.07;9.88;;;;;;;20.03;100.00;102607.00;5256316;28;20126;-69
2021/08/31 09:56:09;;;;;;;20.75;9.30;;;;;;;20.15;100.00;102608.25;5257810;28;20024;-68
2021/08/31 09:58:42;;;;;;;14.98;8.35;;;;;;;20.13;100.00;102603.00;5257417;28;20040;-69
2021/08/31 10:01:12;;;;;;;15.88;8.60;;;;;;;20.25;100.00;102603.34;5257127;28;20031;-69
2021/08/31 10:03:44;;;;;;;18.15;8.98;;;;;;;20.41;100.00;102602.31;5256030;28;20028;-69
2021/08/31 10:06:14;;;;;;;14.13;7.72;;;;;;;20.59;100.00;102597.34;5256569;28;20109;-68
2021/08/31 10:08:45;;;;;;;19.25;8.32;;;;;;;20.98;100.00;102600.72;5257796;28;20053;-70
2021/08/31 10:11:17;;;;;;;23.52;7.85;;;;;;;21.30;100.00;102603.00;5270143;28;20041;-70
2021/08/31 10:13:48;;;;;;;13.93;7.82;;;;;;;21.79;100.00;102602.19;5282043;28;20027;-69
2021/08/31 10:16:20;;;;;;;17.48;8.13;;;;;;;22.01;100.00;102602.97;5282845;28;20505;-69
2021/08/31 10:18:53;;;;;;;12.73;6.93;;;;;;;21.80;100.00;102605.75;5283688;28;20039;-69
2021/08/31 10:21:24;;;;;;;16.10;6.70;;;;;;;21.67;100.00;102607.31;5282270;28;20024;-70
2021/08/31 10:23:55;;;;;;;15.70;7.03;;;;;;;21.66;100.00;102604.81;5282439;28;20053;-69
2021/08/31 10:26:31;;;;;;;16.08;7.18;;;;;;;21.75;100.00;102613.69;5283265;28;20024;-69
2021/08/31 10:29:14;;;;;;;17.88;7.80;;;;;;;21.63;100.00;102610.66;5282389;28;20024;-69
2021/08/31 10:31:48;;;;;;;13.00;6.75;;;;;;;21.43;100.00;102605.84;5282797;28;20027;-69
2021/08/31 10:34:30;;;;;;;13.20;7.40;;;;;;;21.27;100.00;102619.72;5281399;27;20097;-69
2021/08/31 10:37:03;;;;;;;14.27;7.10;;;;;;;21.20;100.00;102616.94;5282289;28;20488;-69
2021/08/31 10:39:47;;;;;;;15.23;7.38;;;;;;;21.15;100.00;102613.13;5282219;28;20623;-70
2021/08/31 10:42:24;;;;;;;15.75;7.13;;;;;;;21.30;100.00;102619.38;5252486;28;20040;-70
2021/08/31 10:44:59;;;;;;;12.25;7.35;;;;;;;21.56;100.00;102610.59;5261192;28;20036;-69
2021/08/31 10:47:32;;;;;;;15.50;7.18;;;;;;;21.72;100.00;102613.03;5261418;28;20028;-70
2021/08/31 10:50:04;;;;;;;15.88;7.22;;;;;;;21.77;100.00;102617.91;5260614;28;20527;-69
2021/08/31 10:52:42;;;;;;;16.40;7.20;;;;;;;21.87;100.00;102618.41;5260559;28;20062;-69
2021/08/31 10:55:18;;;;;;;17.58;7.97;;;;;;;21.73;100.00;102612.00;5260465;28;20518;-69
2021/08/31 10:57:49;;;;;;;12.98;6.47;;;;;;;21.79;100.00;102613.13;5260971;28;20036;-70
2021/08/31 11:00:19;;;;;;;11.68;6.72;;;;;;;21.75;100.00;102609.09;5260327;28;20042;-69
2021/08/31 11:02:52;;;;;;;18.20;6.80;;;;;;;21.53;100.00;102616.44;5260551;28;20031;-69
2021/08/31 11:05:24;;;;;;;15.23;6.85;;;;;;;21.43;100.00;102605.84;5258454;28;20496;-69
2021/08/31 11:08:01;;;;;;;16.15;6.70;;;;;;;21.70;100.00;102609.66;5261218;28;20024;-68
2021/08/31 11:10:35;;;;;;;13.60;6.53;;;;;;;22.21;100.00;102609.44;5266107;28;20438;-69
2021/08/31 11:13:10;;;;;;;10.98;6.38;;;;;;;22.57;100.00;102602.06;5281741;28;20031;-69
2021/08/31 11:15:41;;;;;;;16.53;7.03;;;;;;;22.78;100.00;102609.28;5272393;28;20020;-69
2021/08/31 11:18:13;;;;;;;11.25;6.25;;;;;;;22.59;100.00;102606.28;5260856;28;20071;-69
2021/08/31 11:20:46;;;;;;;14.02;7.03;;;;;;;22.17;100.00;102607.31;5260339;28;20068;-69